sensor_id;sensor_type;location;lat;lon;timestamp;pressure;altitude;pressure_sealevel;temperature;humidity
31092;BME280;17747;51.070;10.930;2022-10-31T00:00:12;101103.84;;;8.83;69.91
31092;BME280;17747;51.070;10.930;2022-10-31T00:01:43;101101.22;;;8.82;70.29
31092;BME280;17747;51.070;10.930;2022-10-31T00:03:15;101111.41;;;9.11;69.86
31092;BME280;17747;51.070;10.930;2022-10-31T00:04:45;101107.72;;;9.27;69.45
31092;BME280;17747;51.070;10.930;2022-10-31T00:06:18;101104.97;;;9.33;69.25
31092;BME280;17747;51.070;10.930;2022-10-31T00:07:51;101102.34;;;9.35;69.04
31092;BME280;17747;51.070;10.930;2022-10-31T00:09:24;101112.09;;;9.27;68.89
31092;BME280;17747;51.070;10.930;2022-10-31T00:10:56;101112.16;;;9.23;68.75
31092;BME280;17747;51.070;10.930;2022-10-31T00:12:26;101111.41;;;9.12;68.68
31092;BME280;17747;51.070;10.930;2022-10-31T00:13:58;101107.84;;;9.16;68.43
31092;BME280;17747;51.070;10.930;2022-10-31T00:15:28;101110.59;;;9.07;68.34
31092;BME280;17747;51.070;10.930;2022-10-31T00:17:00;101103.13;;;8.63;68.80
31092;BME280;17747;51.070;10.930;2022-10-31T00:18:31;101111.22;;;8.43;69.33
31092;BME280;17747;51.070;10.930;2022-10-31T00:20:03;101113.91;;;8.37;70.04
31092;BME280;17747;51.070;10.930;2022-10-31T00:21:35;101109.47;;;8.42;70.24
31092;BME280;17747;51.070;10.930;2022-10-31T00:23:07;101105.00;;;8.50;70.04
31092;BME280;17747;51.070;10.930;2022-10-31T00:24:39;101107.47;;;8.70;69.60
31092;BME280;17747;51.070;10.930;2022-10-31T00:26:11;101111.94;;;8.60;69.66
31092;BME280;17747;51.070;10.930;2022-10-31T00:27:41;101116.25;;;8.66;69.61
31092;BME280;17747;51.070;10.930;2022-10-31T00:29:13;101116.16;;;8.81;69.38
31092;BME280;17747;51.070;10.930;2022-10-31T00:30:44;101122.16;;;8.94;69.01
31092;BME280;17747;51.070;10.930;2022-10-31T00:32:15;101121.16;;;9.04;68.81
31092;BME280;17747;51.070;10.930;2022-10-31T00:33:46;101126.47;;;9.00;68.47
31092;BME280;17747;51.070;10.930;2022-10-31T00:35:17;101120.88;;;8.44;68.99
31092;BME280;17747;51.070;10.930;2022-10-31T00:36:50;101122.66;;;8.41;69.81
31092;BME280;17747;51.070;10.930;2022-10-31T00:38:21;101122.63;;;8.44;70.25
31092;BME280;17747;51.070;10.930;2022-10-31T00:39:53;101118.81;;;8.74;69.88
31092;BME280;17747;51.070;10.930;2022-10-31T00:41:24;101117.81;;;8.91;69.35
31092;BME280;17747;51.070;10.930;2022-10-31T00:42:56;101131.66;;;9.07;68.98
31092;BME280;17747;51.070;10.930;2022-10-31T00:44:26;101127.22;;;9.12;68.82
31092;BME280;17747;51.070;10.930;2022-10-31T00:45:58;101123.84;;;9.00;68.51
31092;BME280;17747;51.070;10.930;2022-10-31T00:47:29;101129.44;;;8.68;68.61
31092;BME280;17747;51.070;10.930;2022-10-31T00:49:01;101132.88;;;8.73;68.97
31092;BME280;17747;51.070;10.930;2022-10-31T00:50:32;101121.81;;;8.37;69.56
31092;BME280;17747;51.070;10.930;2022-10-31T00:52:04;101127.28;;;8.14;70.43
31092;BME280;17747;51.070;10.930;2022-10-31T00:53:35;101128.69;;;8.52;70.39
31092;BME280;17747;51.070;10.930;2022-10-31T00:55:06;101130.13;;;8.88;69.68
31092;BME280;17747;51.070;10.930;2022-10-31T00:56:38;101129.16;;;8.97;69.45
31092;BME280;17747;51.070;10.930;2022-10-31T00:58:10;101130.78;;;9.08;69.13
31092;BME280;17747;51.070;10.930;2022-10-31T00:59:42;101137.88;;;9.03;68.99
31092;BME280;17747;51.070;10.930;2022-10-31T01:01:13;101129.13;;;9.01;68.86
31092;BME280;17747;51.070;10.930;2022-10-31T01:02:43;101133.38;;;9.10;68.70
31092;BME280;17747;51.070;10.930;2022-10-31T01:04:15;101133.81;;;8.69;68.84
31092;BME280;17747;51.070;10.930;2022-10-31T01:05:54;101132.31;;;8.40;69.53
31092;BME280;17747;51.070;10.930;2022-10-31T01:07:26;101123.34;;;8.61;69.76
31092;BME280;17747;51.070;10.930;2022-10-31T01:08:57;101123.94;;;8.92;69.13
31092;BME280;17747;51.070;10.930;2022-10-31T01:10:29;101128.22;;;9.02;69.02
31092;BME280;17747;51.070;10.930;2022-10-31T01:11:59;101125.59;;;9.02;68.91
31092;BME280;17747;51.070;10.930;2022-10-31T01:13:32;101133.41;;;9.08;68.82
31092;BME280;17747;51.070;10.930;2022-10-31T01:15:03;101130.09;;;8.91;68.92
31092;BME280;17747;51.070;10.930;2022-10-31T01:16:35;101130.59;;;8.36;69.91
31092;BME280;17747;51.070;10.930;2022-10-31T01:18:06;101127.13;;;8.29;70.36
31092;BME280;17747;51.070;10.930;2022-10-31T01:19:36;101126.16;;;8.44;70.15
31092;BME280;17747;51.070;10.930;2022-10-31T01:21:08;101141.69;;;8.72;69.73
31092;BME280;17747;51.070;10.930;2022-10-31T01:22:45;101136.25;;;8.88;69.31
31092;BME280;17747;51.070;10.930;2022-10-31T01:24:16;101140.69;;;8.86;69.21
31092;BME280;17747;51.070;10.930;2022-10-31T01:25:47;101138.06;;;8.85;69.17
31092;BME280;17747;51.070;10.930;2022-10-31T01:29:19;101135.75;;;8.48;69.75
31092;BME280;17747;51.070;10.930;2022-10-31T01:30:50;101142.84;;;8.40;69.95
31092;BME280;17747;51.070;10.930;2022-10-31T01:32:21;101136.69;;;8.44;69.93
31092;BME280;17747;51.070;10.930;2022-10-31T01:33:53;101130.59;;;8.37;69.85
31092;BME280;17747;51.070;10.930;2022-10-31T01:35:24;101139.50;;;8.18;70.34
31092;BME280;17747;51.070;10.930;2022-10-31T01:36:55;101133.22;;;8.36;70.19
31092;BME280;17747;51.070;10.930;2022-10-31T01:38:27;101122.56;;;8.50;69.88
31092;BME280;17747;51.070;10.930;2022-10-31T01:39:58;101131.19;;;8.69;69.53
31092;BME280;17747;51.070;10.930;2022-10-31T01:41:30;101124.13;;;8.71;69.15
31092;BME280;17747;51.070;10.930;2022-10-31T01:43:02;101117.38;;;8.42;69.47
31092;BME280;17747;51.070;10.930;2022-10-31T01:46:24;101128.50;;;8.73;69.21
31092;BME280;17747;51.070;10.930;2022-10-31T01:47:56;101126.78;;;8.69;68.86
31092;BME280;17747;51.070;10.930;2022-10-31T01:49:28;101127.84;;;8.48;69.04
31092;BME280;17747;51.070;10.930;2022-10-31T01:51:00;101122.59;;;8.47;69.02
31092;BME280;17747;51.070;10.930;2022-10-31T01:52:35;101133.91;;;8.59;69.13
31092;BME280;17747;51.070;10.930;2022-10-31T01:54:10;101131.16;;;8.72;68.94
31092;BME280;17747;51.070;10.930;2022-10-31T01:55:44;101126.69;;;8.77;68.83
31092;BME280;17747;51.070;10.930;2022-10-31T01:57:16;101136.25;;;8.88;68.55
31092;BME280;17747;51.070;10.930;2022-10-31T01:58:50;101131.97;;;8.81;68.51
31092;BME280;17747;51.070;10.930;2022-10-31T02:00:22;101139.88;;;8.80;68.56
31092;BME280;17747;51.070;10.930;2022-10-31T02:01:54;101134.94;;;8.40;69.53
31092;BME280;17747;51.070;10.930;2022-10-31T02:03:25;101139.66;;;8.01;70.42
31092;BME280;17747;51.070;10.930;2022-10-31T02:04:57;101136.16;;;7.99;70.71
31092;BME280;17747;51.070;10.930;2022-10-31T02:06:32;101138.75;;;8.04;70.63
31092;BME280;17747;51.070;10.930;2022-10-31T02:08:06;101136.94;;;8.07;70.76
31092;BME280;17747;51.070;10.930;2022-10-31T02:09:40;101130.63;;;8.34;70.40
31092;BME280;17747;51.070;10.930;2022-10-31T02:11:12;101133.16;;;8.45;70.00
31092;BME280;17747;51.070;10.930;2022-10-31T02:14:40;101138.13;;;8.76;69.27
31092;BME280;17747;51.070;10.930;2022-10-31T02:16:11;101146.00;;;8.79;69.11
31092;BME280;17747;51.070;10.930;2022-10-31T02:17:43;101138.16;;;8.73;68.88
31092;BME280;17747;51.070;10.930;2022-10-31T02:19:14;101138.44;;;8.45;69.20
31092;BME280;17747;51.070;10.930;2022-10-31T02:20:53;101142.03;;;8.35;69.64
31092;BME280;17747;51.070;10.930;2022-10-31T02:22:26;101146.69;;;7.96;70.10
31092;BME280;17747;51.070;10.930;2022-10-31T02:26:10;101144.66;;;8.32;70.51
31092;BME280;17747;51.070;10.930;2022-10-31T02:27:54;101150.78;;;8.37;70.27
31092;BME280;17747;51.070;10.930;2022-10-31T02:29:45;101157.69;;;8.50;69.68
31092;BME280;17747;51.070;10.930;2022-10-31T02:31:26;101153.16;;;8.68;69.35
31092;BME280;17747;51.070;10.930;2022-10-31T02:33:06;101153.09;;;8.72;69.14
31092;BME280;17747;51.070;10.930;2022-10-31T02:34:42;101148.97;;;8.42;69.33
31092;BME280;17747;51.070;10.930;2022-10-31T02:36:21;101154.50;;;8.10;69.69
31092;BME280;17747;51.070;10.930;2022-10-31T02:37:57;101164.06;;;8.22;70.09
31092;BME280;17747;51.070;10.930;2022-10-31T02:39:34;101164.72;;;8.48;70.03
31092;BME280;17747;51.070;10.930;2022-10-31T02:41:09;101163.69;;;8.63;69.37
31092;BME280;17747;51.070;10.930;2022-10-31T02:42:44;101165.53;;;8.56;69.67
31092;BME280;17747;51.070;10.930;2022-10-31T02:44:20;101164.56;;;8.66;69.55
31092;BME280;17747;51.070;10.930;2022-10-31T02:45:54;101161.25;;;8.45;69.91
31092;BME280;17747;51.070;10.930;2022-10-31T02:47:29;101160.53;;;8.23;70.17
31092;BME280;17747;51.070;10.930;2022-10-31T02:49:05;101162.72;;;7.49;71.34
31092;BME280;17747;51.070;10.930;2022-10-31T02:50:38;101159.06;;;7.82;72.18
31092;BME280;17747;51.070;10.930;2022-10-31T02:52:16;101159.66;;;8.21;71.92
31092;BME280;17747;51.070;10.930;2022-10-31T02:53:48;101158.53;;;8.55;71.56
31092;BME280;17747;51.070;10.930;2022-10-31T02:57:10;101163.50;;;8.86;70.47
31092;BME280;17747;51.070;10.930;2022-10-31T02:58:42;101173.16;;;8.90;70.33
31092;BME280;17747;51.070;10.930;2022-10-31T03:00:20;101156.53;;;8.77;70.17
31092;BME280;17747;51.070;10.930;2022-10-31T03:02:07;101155.13;;;8.40;70.36
31092;BME280;17747;51.070;10.930;2022-10-31T03:03:44;101163.03;;;8.38;70.20
31092;BME280;17747;51.070;10.930;2022-10-31T03:05:23;101164.91;;;8.24;70.25
31092;BME280;17747;51.070;10.930;2022-10-31T03:07:00;101160.38;;;8.43;69.99
31092;BME280;17747;51.070;10.930;2022-10-31T03:08:35;101160.50;;;8.27;70.22
31092;BME280;17747;51.070;10.930;2022-10-31T03:10:08;101165.56;;;8.50;70.23
31092;BME280;17747;51.070;10.930;2022-10-31T03:11:45;101166.28;;;8.71;69.73
31092;BME280;17747;51.070;10.930;2022-10-31T03:13:23;101171.47;;;8.81;69.71
31092;BME280;17747;51.070;10.930;2022-10-31T03:14:59;101181.09;;;8.84;69.55
31092;BME280;17747;51.070;10.930;2022-10-31T03:16:37;101166.28;;;8.71;69.51
31092;BME280;17747;51.070;10.930;2022-10-31T03:18:12;101169.84;;;8.66;69.66
31092;BME280;17747;51.070;10.930;2022-10-31T03:19:48;101174.09;;;8.83;69.65
31092;BME280;17747;51.070;10.930;2022-10-31T03:21:21;101180.16;;;8.91;69.32
31092;BME280;17747;51.070;10.930;2022-10-31T03:22:55;101176.72;;;8.83;69.08
31092;BME280;17747;51.070;10.930;2022-10-31T03:24:27;101183.75;;;8.78;68.96
31092;BME280;17747;51.070;10.930;2022-10-31T03:25:59;101190.81;;;8.80;69.11
31092;BME280;17747;51.070;10.930;2022-10-31T03:27:33;101195.09;;;8.87;69.27
31092;BME280;17747;51.070;10.930;2022-10-31T03:29:06;101199.41;;;8.96;69.22
31092;BME280;17747;51.070;10.930;2022-10-31T03:30:39;101201.16;;;8.97;69.48
31092;BME280;17747;51.070;10.930;2022-10-31T03:32:12;101202.03;;;8.98;69.66
31092;BME280;17747;51.070;10.930;2022-10-31T03:33:44;101202.09;;;8.93;69.84
31092;BME280;17747;51.070;10.930;2022-10-31T03:35:18;101194.53;;;8.50;70.88
31092;BME280;17747;51.070;10.930;2022-10-31T03:36:51;101204.38;;;8.27;71.53
31092;BME280;17747;51.070;10.930;2022-10-31T03:38:24;101199.81;;;8.50;71.69
31092;BME280;17747;51.070;10.930;2022-10-31T03:39:55;101203.16;;;8.71;71.35
31092;BME280;17747;51.070;10.930;2022-10-31T03:41:30;101203.00;;;8.89;70.80
31092;BME280;17747;51.070;10.930;2022-10-31T03:43:04;101213.41;;;9.03;70.67
31092;BME280;17747;51.070;10.930;2022-10-31T03:44:38;101207.28;;;8.99;70.81
31092;BME280;17747;51.070;10.930;2022-10-31T03:46:11;101209.69;;;9.20;70.80
31092;BME280;17747;51.070;10.930;2022-10-31T03:47:43;101204.34;;;9.30;70.75
31092;BME280;17747;51.070;10.930;2022-10-31T03:49:15;101201.59;;;9.39;70.53
31092;BME280;17747;51.070;10.930;2022-10-31T03:50:49;101201.53;;;9.46;70.41
31092;BME280;17747;51.070;10.930;2022-10-31T03:52:24;101205.94;;;9.46;70.47
31092;BME280;17747;51.070;10.930;2022-10-31T03:54:00;101208.53;;;9.47;70.09
31092;BME280;17747;51.070;10.930;2022-10-31T03:55:34;101205.97;;;9.41;70.34
31092;BME280;17747;51.070;10.930;2022-10-31T03:57:08;101214.69;;;9.48;70.75
31092;BME280;17747;51.070;10.930;2022-10-31T03:58:42;101213.75;;;9.50;70.61
31092;BME280;17747;51.070;10.930;2022-10-31T04:00:16;101218.06;;;9.59;70.37
31092;BME280;17747;51.070;10.930;2022-10-31T04:01:49;101220.63;;;9.64;70.24
31092;BME280;17747;51.070;10.930;2022-10-31T04:03:22;101225.88;;;9.65;70.28
31092;BME280;17747;51.070;10.930;2022-10-31T04:04:54;101225.81;;;9.73;70.28
31092;BME280;17747;51.070;10.930;2022-10-31T04:06:28;101220.44;;;9.79;70.61
31092;BME280;17747;51.070;10.930;2022-10-31T04:08:01;101220.47;;;9.76;70.25
31092;BME280;17747;51.070;10.930;2022-10-31T04:09:35;101218.66;;;9.82;70.44
31092;BME280;17747;51.070;10.930;2022-10-31T04:11:06;101223.94;;;9.81;70.83
31092;BME280;17747;51.070;10.930;2022-10-31T04:12:39;101227.53;;;9.75;71.04
31092;BME280;17747;51.070;10.930;2022-10-31T04:14:11;101221.34;;;9.76;71.10
31092;BME280;17747;51.070;10.930;2022-10-31T04:15:48;101222.13;;;9.85;71.64
31092;BME280;17747;51.070;10.930;2022-10-31T04:17:36;101224.59;;;9.97;71.54
31092;BME280;17747;51.070;10.930;2022-10-31T04:19:09;101219.25;;;10.03;71.86
31092;BME280;17747;51.070;10.930;2022-10-31T04:20:41;101226.09;;;10.16;71.91
31092;BME280;17747;51.070;10.930;2022-10-31T04:22:14;101228.69;;;10.21;72.08
31092;BME280;17747;51.070;10.930;2022-10-31T04:23:45;101224.16;;;10.30;72.44
31092;BME280;17747;51.070;10.930;2022-10-31T04:25:17;101226.72;;;10.36;72.62
31092;BME280;17747;51.070;10.930;2022-10-31T04:26:48;101231.16;;;10.31;72.41
31092;BME280;17747;51.070;10.930;2022-10-31T04:28:19;101223.03;;;10.45;72.76
31092;BME280;17747;51.070;10.930;2022-10-31T04:29:50;101219.53;;;10.45;72.58
31092;BME280;17747;51.070;10.930;2022-10-31T04:31:22;101231.63;;;10.59;72.59
31092;BME280;17747;51.070;10.930;2022-10-31T04:32:53;101234.25;;;10.61;72.76
31092;BME280;17747;51.070;10.930;2022-10-31T04:34:25;101240.44;;;10.58;72.82
31092;BME280;17747;51.070;10.930;2022-10-31T04:35:55;101230.72;;;10.60;72.79
31092;BME280;17747;51.070;10.930;2022-10-31T04:37:28;101230.63;;;10.66;72.89
31092;BME280;17747;51.070;10.930;2022-10-31T04:38:59;101230.69;;;10.62;73.10
31092;BME280;17747;51.070;10.930;2022-10-31T04:40:30;101232.31;;;10.69;73.11
31092;BME280;17747;51.070;10.930;2022-10-31T04:42:01;101231.34;;;10.76;73.09
31092;BME280;17747;51.070;10.930;2022-10-31T04:43:32;101226.88;;;10.78;73.02
31092;BME280;17747;51.070;10.930;2022-10-31T04:45:04;101227.72;;;10.82;73.06
31092;BME280;17747;51.070;10.930;2022-10-31T04:46:36;101226.03;;;10.78;73.16
31092;BME280;17747;51.070;10.930;2022-10-31T04:48:07;101233.94;;;10.78;73.28
31092;BME280;17747;51.070;10.930;2022-10-31T04:49:39;101226.75;;;10.87;73.08
31092;BME280;17747;51.070;10.930;2022-10-31T04:51:10;101228.41;;;10.91;72.89
31092;BME280;17747;51.070;10.930;2022-10-31T04:52:43;101235.44;;;10.92;72.58
31092;BME280;17747;51.070;10.930;2022-10-31T04:54:15;101235.56;;;10.86;72.58
31092;BME280;17747;51.070;10.930;2022-10-31T04:55:46;101230.28;;;10.86;72.68
31092;BME280;17747;51.070;10.930;2022-10-31T04:57:16;101230.31;;;10.85;72.59
31092;BME280;17747;51.070;10.930;2022-10-31T04:58:48;101232.25;;;10.75;72.76
31092;BME280;17747;51.070;10.930;2022-10-31T05:00:19;101226.94;;;10.77;72.94
31092;BME280;17747;51.070;10.930;2022-10-31T05:01:52;101229.69;;;10.71;73.00
31092;BME280;17747;51.070;10.930;2022-10-31T05:03:33;101236.75;;;10.68;72.99
31092;BME280;17747;51.070;10.930;2022-10-31T05:05:05;101223.00;;;10.47;73.19
31092;BME280;17747;51.070;10.930;2022-10-31T05:06:36;101221.66;;;10.18;73.97
31092;BME280;17747;51.070;10.930;2022-10-31T05:08:09;101233.44;;;10.56;73.63
31092;BME280;17747;51.070;10.930;2022-10-31T05:09:40;101230.94;;;10.47;73.43
31092;BME280;17747;51.070;10.930;2022-10-31T05:11:11;101225.44;;;10.60;73.13
31092;BME280;17747;51.070;10.930;2022-10-31T05:12:45;101235.16;;;10.57;73.04
31092;BME280;17747;51.070;10.930;2022-10-31T05:14:16;101229.78;;;10.64;72.87
31092;BME280;17747;51.070;10.930;2022-10-31T05:15:49;101235.78;;;10.74;72.54
31092;BME280;17747;51.070;10.930;2022-10-31T05:17:20;101233.19;;;10.69;72.67
31092;BME280;17747;51.070;10.930;2022-10-31T05:18:51;101222.72;;;10.65;72.96
31092;BME280;17747;51.070;10.930;2022-10-31T05:20:24;101229.13;;;10.50;73.43
31092;BME280;17747;51.070;10.930;2022-10-31T05:21:54;101220.53;;;10.37;73.80
31092;BME280;17747;51.070;10.930;2022-10-31T05:23:27;101226.53;;;10.46;73.45
31092;BME280;17747;51.070;10.930;2022-10-31T05:24:58;101238.78;;;10.51;73.23
31092;BME280;17747;51.070;10.930;2022-10-31T05:26:29;101232.88;;;10.34;73.18
31092;BME280;17747;51.070;10.930;2022-10-31T05:28:00;101226.28;;;10.01;73.83
31092;BME280;17747;51.070;10.930;2022-10-31T05:29:31;101233.47;;;9.93;73.99
31092;BME280;17747;51.070;10.930;2022-10-31T05:31:03;101228.00;;;10.06;74.35
31092;BME280;17747;51.070;10.930;2022-10-31T05:32:37;101227.09;;;10.07;73.90
31092;BME280;17747;51.070;10.930;2022-10-31T05:34:09;101232.00;;;10.33;73.51
31092;BME280;17747;51.070;10.930;2022-10-31T05:35:40;101236.66;;;10.16;73.16
31092;BME280;17747;51.070;10.930;2022-10-31T05:37:11;101238.81;;;9.87;73.39
31092;BME280;17747;51.070;10.930;2022-10-31T05:38:44;101239.41;;;10.07;73.72
31092;BME280;17747;51.070;10.930;2022-10-31T05:40:16;101240.00;;;10.30;73.23
31092;BME280;17747;51.070;10.930;2022-10-31T05:41:46;101241.66;;;10.37;72.66
31092;BME280;17747;51.070;10.930;2022-10-31T05:43:18;101244.47;;;10.25;72.58
31092;BME280;17747;51.070;10.930;2022-10-31T05:44:49;101240.91;;;10.29;72.28
31092;BME280;17747;51.070;10.930;2022-10-31T05:46:20;101253.03;;;10.41;72.27
31092;BME280;17747;51.070;10.930;2022-10-31T05:47:51;101254.84;;;10.39;71.84
31092;BME280;17747;51.070;10.930;2022-10-31T05:49:22;101262.03;;;10.28;71.65
31092;BME280;17747;51.070;10.930;2022-10-31T05:50:53;101258.56;;;10.26;71.97
31092;BME280;17747;51.070;10.930;2022-10-31T05:52:25;101262.00;;;10.31;72.01
31092;BME280;17747;51.070;10.930;2022-10-31T05:53:57;101257.50;;;10.37;72.04
31092;BME280;17747;51.070;10.930;2022-10-31T05:55:29;101265.25;;;10.50;72.08
31092;BME280;17747;51.070;10.930;2022-10-31T05:57:01;101254.72;;;10.45;72.14
31092;BME280;17747;51.070;10.930;2022-10-31T05:58:31;101255.56;;;10.49;72.39
31092;BME280;17747;51.070;10.930;2022-10-31T06:00:03;101258.19;;;10.50;72.40
31092;BME280;17747;51.070;10.930;2022-10-31T06:01:35;101270.41;;;10.56;72.64
31092;BME280;17747;51.070;10.930;2022-10-31T06:03:07;101264.41;;;10.45;72.78
31092;BME280;17747;51.070;10.930;2022-10-31T06:04:38;101268.63;;;10.58;73.16
31092;BME280;17747;51.070;10.930;2022-10-31T06:06:10;101260.81;;;10.52;73.04
31092;BME280;17747;51.070;10.930;2022-10-31T06:07:41;101266.06;;;10.53;73.33
31092;BME280;17747;51.070;10.930;2022-10-31T06:09:14;101258.34;;;10.39;73.32
31092;BME280;17747;51.070;10.930;2022-10-31T06:10:45;101264.22;;;10.57;73.25
31092;BME280;17747;51.070;10.930;2022-10-31T06:12:17;101265.16;;;10.54;73.09
31092;BME280;17747;51.070;10.930;2022-10-31T06:13:48;101272.84;;;10.69;73.06
31092;BME280;17747;51.070;10.930;2022-10-31T06:15:20;101278.25;;;10.62;73.04
31092;BME280;17747;51.070;10.930;2022-10-31T06:16:52;101278.16;;;10.66;72.97
31092;BME280;17747;51.070;10.930;2022-10-31T06:18:24;101285.09;;;10.75;72.91
31092;BME280;17747;51.070;10.930;2022-10-31T06:19:59;101285.16;;;10.72;72.79
31092;BME280;17747;51.070;10.930;2022-10-31T06:21:32;101281.69;;;10.67;73.01
31092;BME280;17747;51.070;10.930;2022-10-31T06:23:04;101291.34;;;10.71;73.03
31092;BME280;17747;51.070;10.930;2022-10-31T06:24:37;101281.59;;;10.73;73.08
31092;BME280;17747;51.070;10.930;2022-10-31T06:26:08;101293.03;;;10.74;72.98
31092;BME280;17747;51.070;10.930;2022-10-31T06:27:39;101285.16;;;10.69;73.36
31092;BME280;17747;51.070;10.930;2022-10-31T06:29:11;101291.19;;;10.79;72.96
31092;BME280;17747;51.070;10.930;2022-10-31T06:30:42;101292.91;;;10.81;72.87
31092;BME280;17747;51.070;10.930;2022-10-31T06:32:13;101298.34;;;10.74;73.17
31092;BME280;17747;51.070;10.930;2022-10-31T06:33:45;101304.41;;;10.79;73.26
31092;BME280;17747;51.070;10.930;2022-10-31T06:35:16;101305.16;;;10.87;73.11
31092;BME280;17747;51.070;10.930;2022-10-31T06:36:48;101307.69;;;10.94;73.09
31092;BME280;17747;51.070;10.930;2022-10-31T06:38:19;101310.44;;;10.87;73.15
31092;BME280;17747;51.070;10.930;2022-10-31T06:39:52;101305.25;;;10.82;73.30
31092;BME280;17747;51.070;10.930;2022-10-31T06:41:23;101321.75;;;10.96;73.09
31092;BME280;17747;51.070;10.930;2022-10-31T06:42:58;101312.06;;;10.95;73.22
31092;BME280;17747;51.070;10.930;2022-10-31T06:44:29;101312.97;;;10.94;73.27
31092;BME280;17747;51.070;10.930;2022-10-31T06:46:01;101307.56;;;11.01;73.22
31092;BME280;17747;51.070;10.930;2022-10-31T06:47:33;101305.84;;;10.98;73.16
31092;BME280;17747;51.070;10.930;2022-10-31T06:49:04;101308.50;;;10.98;73.28
31092;BME280;17747;51.070;10.930;2022-10-31T06:50:36;101310.13;;;11.07;73.28
31092;BME280;17747;51.070;10.930;2022-10-31T06:52:07;101312.72;;;11.10;72.94
31092;BME280;17747;51.070;10.930;2022-10-31T06:53:38;101313.69;;;11.03;73.36
31092;BME280;17747;51.070;10.930;2022-10-31T06:55:11;101318.94;;;11.07;73.06
31092;BME280;17747;51.070;10.930;2022-10-31T06:56:45;101317.06;;;11.12;72.95
31092;BME280;17747;51.070;10.930;2022-10-31T06:58:16;101313.66;;;11.04;73.04
31092;BME280;17747;51.070;10.930;2022-10-31T06:59:48;101313.66;;;11.04;73.19
31092;BME280;17747;51.070;10.930;2022-10-31T07:01:19;101310.97;;;11.09;73.03
31092;BME280;17747;51.070;10.930;2022-10-31T07:02:54;101321.69;;;10.99;73.18
31092;BME280;17747;51.070;10.930;2022-10-31T07:04:24;101315.34;;;11.10;73.13
31092;BME280;17747;51.070;10.930;2022-10-31T07:05:55;101318.84;;;11.12;73.03
31092;BME280;17747;51.070;10.930;2022-10-31T07:07:26;101318.78;;;11.15;73.04
31092;BME280;17747;51.070;10.930;2022-10-31T07:08:57;101328.50;;;11.16;72.88
31092;BME280;17747;51.070;10.930;2022-10-31T07:10:31;101329.41;;;11.12;73.01
31092;BME280;17747;51.070;10.930;2022-10-31T07:12:04;101325.81;;;11.17;73.04
31092;BME280;17747;51.070;10.930;2022-10-31T07:13:35;101327.44;;;11.24;73.06
31092;BME280;17747;51.070;10.930;2022-10-31T07:15:07;101319.66;;;11.17;73.34
31092;BME280;17747;51.070;10.930;2022-10-31T07:16:38;101328.38;;;11.22;73.61
31092;BME280;17747;51.070;10.930;2022-10-31T07:18:10;101313.25;;;11.30;73.49
31092;BME280;17747;51.070;10.930;2022-10-31T07:19:42;101315.81;;;11.33;73.26
31092;BME280;17747;51.070;10.930;2022-10-31T07:21:13;101314.88;;;11.36;73.33
31092;BME280;17747;51.070;10.930;2022-10-31T07:22:44;101318.84;;;11.12;73.88
31092;BME280;17747;51.070;10.930;2022-10-31T07:24:15;101318.50;;;11.32;73.61
31092;BME280;17747;51.070;10.930;2022-10-31T07:25:48;101324.56;;;11.37;73.43
31092;BME280;17747;51.070;10.930;2022-10-31T07:27:19;101325.88;;;11.13;74.02
31092;BME280;17747;51.070;10.930;2022-10-31T07:28:51;101334.28;;;11.36;74.16
31092;BME280;17747;51.070;10.930;2022-10-31T07:30:22;101333.19;;;11.49;73.74
31092;BME280;17747;51.070;10.930;2022-10-31T07:31:53;101329.66;;;11.50;73.54
31092;BME280;17747;51.070;10.930;2022-10-31T07:33:25;101339.38;;;11.48;73.61
31092;BME280;17747;51.070;10.930;2022-10-31T07:34:57;101335.84;;;11.49;73.58
31092;BME280;17747;51.070;10.930;2022-10-31T07:36:37;101339.28;;;11.54;73.77
31092;BME280;17747;51.070;10.930;2022-10-31T07:38:09;101340.91;;;11.63;73.57
31092;BME280;17747;51.070;10.930;2022-10-31T07:39:40;101350.84;;;11.50;73.57
31092;BME280;17747;51.070;10.930;2022-10-31T07:41:13;101344.53;;;11.56;73.81
31092;BME280;17747;51.070;10.930;2022-10-31T07:42:47;101335.63;;;11.60;73.72
31092;BME280;17747;51.070;10.930;2022-10-31T07:44:19;101346.09;;;11.68;73.81
31092;BME280;17747;51.070;10.930;2022-10-31T07:45:51;101341.47;;;11.79;73.79
31092;BME280;17747;51.070;10.930;2022-10-31T07:47:23;101346.59;;;11.88;73.39
31092;BME280;17747;51.070;10.930;2022-10-31T07:48:54;101352.59;;;11.95;73.50
31092;BME280;17747;51.070;10.930;2022-10-31T07:50:26;101348.53;;;11.78;73.96
31092;BME280;17747;51.070;10.930;2022-10-31T07:51:58;101344.66;;;11.95;73.88
31092;BME280;17747;51.070;10.930;2022-10-31T07:53:29;101353.34;;;12.03;73.75
31092;BME280;17747;51.070;10.930;2022-10-31T07:55:00;101360.09;;;12.19;73.38
31092;BME280;17747;51.070;10.930;2022-10-31T07:56:33;101357.41;;;12.21;73.38
31092;BME280;17747;51.070;10.930;2022-10-31T07:58:05;101354.50;;;12.33;73.26
31092;BME280;17747;51.070;10.930;2022-10-31T07:59:37;101356.50;;;12.22;73.33
31092;BME280;17747;51.070;10.930;2022-10-31T08:01:09;101353.66;;;12.31;73.26
31092;BME280;17747;51.070;10.930;2022-10-31T08:02:40;101359.47;;;12.06;73.59
31092;BME280;17747;51.070;10.930;2022-10-31T08:04:11;101357.31;;;12.24;73.61
31092;BME280;17747;51.070;10.930;2022-10-31T08:05:43;101358.91;;;11.89;73.60
31092;BME280;17747;51.070;10.930;2022-10-31T08:07:16;101358.66;;;12.01;74.04
31092;BME280;17747;51.070;10.930;2022-10-31T08:08:46;101364.84;;;12.02;73.93
31092;BME280;17747;51.070;10.930;2022-10-31T08:10:17;101356.06;;;12.00;74.01